createdAt,value
2023-05-21T00:01:48.678Z,12.41
2023-05-21T00:04:17.876Z,12.38
2023-05-21T00:06:45.769Z,12.32
2023-05-21T00:09:13.992Z,12.38
2023-05-21T00:11:41.936Z,12.42
2023-05-21T00:14:10.170Z,12.40
2023-05-21T00:16:38.876Z,12.42
2023-05-21T00:19:07.203Z,12.41
2023-05-21T00:21:34.999Z,12.37
2023-05-21T00:24:02.997Z,12.32
2023-05-21T00:26:30.919Z,12.28
2023-05-21T00:28:59.121Z,12.30
2023-05-21T00:31:27.221Z,12.21
2023-05-21T00:33:55.338Z,12.29
2023-05-21T00:36:24.283Z,12.21
2023-05-21T00:38:52.582Z,12.20
2023-05-21T00:41:22.903Z,12.21
2023-05-21T00:43:51.085Z,12.23
2023-05-21T00:46:21.359Z,12.12
2023-05-21T00:48:50.992Z,12.13
2023-05-21T00:51:21.983Z,12.02
2023-05-21T00:53:52.819Z,12.07
2023-05-21T00:56:23.205Z,12.03
2023-05-21T00:58:54.867Z,11.99
2023-05-21T01:01:25.988Z,12.02
2023-05-21T01:03:58.065Z,12.00
2023-05-21T01:06:26.270Z,11.93
2023-05-21T01:08:58.067Z,11.62
2023-05-21T01:11:37.719Z,11.74
2023-05-21T01:14:08.720Z,11.76
2023-05-21T01:16:42.568Z,11.67
2023-05-21T01:19:22.388Z,11.76
2023-05-21T01:21:57.884Z,11.68
2023-05-21T01:24:26.016Z,11.72
2023-05-21T01:26:54.048Z,11.72
2023-05-21T01:29:22.124Z,11.78
2023-05-21T01:32:17.613Z,11.82
2023-05-21T01:35:08.458Z,11.84
2023-05-21T01:37:48.219Z,11.90
2023-05-21T01:40:43.489Z,11.84
2023-05-21T01:43:13.051Z,11.88
2023-05-21T01:45:43.127Z,11.85
2023-05-21T01:48:13.292Z,11.82
2023-05-21T01:50:44.232Z,11.88
2023-05-21T01:53:12.380Z,11.83
2023-05-21T01:55:42.258Z,11.89
2023-05-21T01:58:10.378Z,11.92
2023-05-21T02:00:40.199Z,11.89
2023-05-21T02:03:09.097Z,11.91
2023-05-21T02:05:37.357Z,11.86
2023-05-21T02:08:05.727Z,11.96
2023-05-21T02:10:33.763Z,11.90
2023-05-21T02:13:01.741Z,11.67
2023-05-21T02:15:30.613Z,11.72
2023-05-21T02:17:58.919Z,11.82
2023-05-21T02:20:26.945Z,11.83
2023-05-21T02:22:56.017Z,11.88
2023-05-21T02:25:24.089Z,11.88
2023-05-21T02:27:56.936Z,11.84
2023-05-21T02:30:24.994Z,11.87
2023-05-21T02:32:54.067Z,11.70
2023-05-21T02:35:22.098Z,11.80
2023-05-21T02:37:50.254Z,11.67
2023-05-21T02:40:18.666Z,11.83
2023-05-21T02:42:46.607Z,11.74
2023-05-21T02:45:19.436Z,11.78
2023-05-21T02:47:48.114Z,11.77
2023-05-21T02:50:19.385Z,11.88
2023-05-21T02:54:25.388Z,11.74
2023-05-21T02:56:53.532Z,11.65
2023-05-21T02:59:21.499Z,11.71
2023-05-21T03:01:49.618Z,11.66
2023-05-21T03:04:18.629Z,11.69
2023-05-21T03:06:46.747Z,11.73
2023-05-21T03:09:14.701Z,11.69
2023-05-21T03:11:43.330Z,11.68
2023-05-21T03:14:12.401Z,11.53
2023-05-21T03:16:41.991Z,11.65
2023-05-21T03:19:11.689Z,11.62
2023-05-21T03:21:39.992Z,11.60
2023-05-21T03:24:08.061Z,11.69
2023-05-21T03:26:36.339Z,11.53
2023-05-21T03:29:04.548Z,11.61
2023-05-21T03:31:32.904Z,11.71
2023-05-21T03:34:08.893Z,11.75
2023-05-21T03:36:36.880Z,11.80
2023-05-21T03:39:04.900Z,11.84
2023-05-21T03:41:34.872Z,11.79
2023-05-21T03:44:12.251Z,11.75
2023-05-21T03:46:51.055Z,11.82
2023-05-21T03:49:34.174Z,11.87
2023-05-21T03:52:02.144Z,11.89
2023-05-21T03:54:30.176Z,11.81
2023-05-21T03:57:03.105Z,11.89
2023-05-21T03:59:31.087Z,11.91
2023-05-21T04:02:00.269Z,11.93
2023-05-21T04:04:29.831Z,11.97
2023-05-21T04:06:58.015Z,11.82
2023-05-21T04:09:28.035Z,11.89
2023-05-21T04:11:56.320Z,11.82
2023-05-21T04:14:24.284Z,11.95
2023-05-21T04:16:53.761Z,12.04
2023-05-21T04:19:22.758Z,12.08
2023-05-21T04:21:54.475Z,12.14
2023-05-21T04:24:22.796Z,12.25
2023-05-21T04:27:25.489Z,12.21
2023-05-21T04:29:54.979Z,12.16
2023-05-21T04:32:25.330Z,12.21
2023-05-21T04:34:53.489Z,12.20
2023-05-21T04:37:24.865Z,12.26
2023-05-21T04:39:54.081Z,12.16
2023-05-21T04:42:24.923Z,12.04
2023-05-21T04:44:55.798Z,12.18
2023-05-21T04:47:23.952Z,12.33
2023-05-21T04:49:52.058Z,12.16
2023-05-21T04:52:20.135Z,12.30
2023-05-21T04:54:48.106Z,12.32
2023-05-21T04:57:18.593Z,12.39
2023-05-21T04:59:47.471Z,12.25
2023-05-21T05:02:16.197Z,12.04
2023-05-21T05:04:44.616Z,12.34
2023-05-21T05:07:12.962Z,12.25
2023-05-21T05:09:41.119Z,12.47
2023-05-21T05:12:09.436Z,12.49
2023-05-21T05:14:37.496Z,12.39
2023-05-21T05:17:05.911Z,12.56
2023-05-21T05:19:35.339Z,12.86
2023-05-21T05:22:03.836Z,12.46
2023-05-21T05:24:32.353Z,12.80
2023-05-21T05:27:00.383Z,12.81
2023-05-21T05:29:28.572Z,12.93
2023-05-21T05:31:57.034Z,12.80
2023-05-21T05:34:25.079Z,12.76
2023-05-21T05:36:53.580Z,12.92
2023-05-21T05:39:22.424Z,13.56
2023-05-21T05:41:51.362Z,13.86
2023-05-21T05:44:19.797Z,13.81
2023-05-21T05:46:48.137Z,13.96
2023-05-21T05:49:16.189Z,13.88
2023-05-21T05:51:45.260Z,14.33
2023-05-21T05:54:13.901Z,14.65
2023-05-21T05:56:42.256Z,15.40
2023-05-21T05:59:10.330Z,16.56
2023-05-21T06:01:40.397Z,17.33
2023-05-21T06:04:08.454Z,18.47
2023-05-21T06:06:37.254Z,20.62
2023-05-21T06:09:05.658Z,22.32
2023-05-21T06:11:34.234Z,23.39
2023-05-21T06:14:02.458Z,24.70
2023-05-21T06:16:34.222Z,25.02
2023-05-21T06:19:02.844Z,24.98
2023-05-21T06:21:31.357Z,26.26
2023-05-21T06:24:00.440Z,27.37
2023-05-21T06:26:30.403Z,28.03
2023-05-21T06:28:59.424Z,28.83
2023-05-21T06:31:28.371Z,29.46
2023-05-21T06:33:56.617Z,30.09
2023-05-21T06:36:30.151Z,29.98
2023-05-21T06:38:59.632Z,30.82
2023-05-21T06:41:28.598Z,31.27
2023-05-21T06:44:00.193Z,31.76
2023-05-21T06:46:48.962Z,31.91
2023-05-21T06:49:19.216Z,32.54
2023-05-21T06:51:47.636Z,32.44
2023-05-21T06:54:16.088Z,32.07
2023-05-21T06:56:44.521Z,32.45
2023-05-21T06:59:12.922Z,31.57
2023-05-21T07:01:42.840Z,32.22
2023-05-21T07:04:11.368Z,32.81
2023-05-21T07:06:41.352Z,32.80
2023-05-21T07:09:10.750Z,33.15
2023-05-21T07:11:42.131Z,32.89
2023-05-21T07:14:10.962Z,33.26
2023-05-21T07:16:39.695Z,32.82
2023-05-21T07:19:09.293Z,33.11
2023-05-21T07:21:37.411Z,32.95
2023-05-21T07:24:07.512Z,32.87
2023-05-21T07:26:39.413Z,32.55
2023-05-21T07:29:08.024Z,32.07
2023-05-21T07:31:36.656Z,30.05
2023-05-21T07:34:06.071Z,28.39
2023-05-21T07:36:34.683Z,27.06
2023-05-21T07:39:04.479Z,26.33
2023-05-21T07:41:33.215Z,25.56
2023-05-21T07:44:05.051Z,24.65
2023-05-21T07:46:37.261Z,24.08
2023-05-21T07:49:05.717Z,23.53
2023-05-21T07:51:33.973Z,22.68
2023-05-21T07:54:02.479Z,22.13
2023-05-21T07:56:34.970Z,21.50
2023-05-21T07:59:03.736Z,21.03
2023-05-21T08:01:33.566Z,20.74
2023-05-21T08:04:06.236Z,20.49
2023-05-21T08:06:37.825Z,20.37
2023-05-21T08:09:06.956Z,20.17
2023-05-21T08:11:36.461Z,20.19
2023-05-21T08:14:04.767Z,20.10
2023-05-21T08:16:33.305Z,20.10
2023-05-21T08:19:02.070Z,20.04
2023-05-21T08:21:30.445Z,19.77
2023-05-21T08:24:00.864Z,19.59
2023-05-21T08:26:29.289Z,19.56
2023-05-21T08:28:57.858Z,19.44
2023-05-21T08:31:26.719Z,19.10
2023-05-21T08:33:56.813Z,18.96
2023-05-21T08:36:38.703Z,18.80
2023-05-21T08:39:14.999Z,18.64
2023-05-21T08:41:50.058Z,18.68
2023-05-21T08:44:22.646Z,18.95
2023-05-21T08:46:52.269Z,19.04
2023-05-21T08:49:27.644Z,19.31
2023-05-21T08:52:05.776Z,19.44
2023-05-21T08:54:34.932Z,19.33
2023-05-21T08:57:04.701Z,19.21
2023-05-21T08:59:33.456Z,18.84
2023-05-21T09:02:04.106Z,18.90
2023-05-21T09:04:39.128Z,18.98
2023-05-21T09:07:11.301Z,18.96
2023-05-21T09:10:11.054Z,18.39
2023-05-21T09:12:40.435Z,18.12
2023-05-21T09:15:09.050Z,18.10
2023-05-21T09:17:38.922Z,18.39
2023-05-21T09:20:27.073Z,18.62
2023-05-21T09:23:10.653Z,18.43
2023-05-21T09:25:39.781Z,18.56
2023-05-21T09:28:16.262Z,18.68
2023-05-21T09:30:49.455Z,18.78
2023-05-21T09:33:30.012Z,18.90
2023-05-21T09:36:01.453Z,19.41
2023-05-21T09:38:30.781Z,19.66
2023-05-21T09:40:59.519Z,19.39
2023-05-21T09:43:31.553Z,19.45
2023-05-21T09:46:02.393Z,19.67
2023-05-21T09:48:35.047Z,19.59
2023-05-21T09:51:18.159Z,19.61
2023-05-21T09:53:55.753Z,19.49
2023-05-21T09:56:26.510Z,19.45
2023-05-21T09:58:57.373Z,19.41
2023-05-21T10:01:25.992Z,19.68
2023-05-21T10:03:58.221Z,19.97
2023-05-21T10:06:28.730Z,20.24
2023-05-21T10:09:05.765Z,20.37
2023-05-21T10:11:37.226Z,20.19
2023-05-21T10:14:07.773Z,20.31
2023-05-21T10:16:37.689Z,20.38
2023-05-21T10:19:11.247Z,20.26
2023-05-21T10:21:41.530Z,20.09
2023-05-21T10:24:11.377Z,19.34
2023-05-21T10:26:41.847Z,19.45
2023-05-21T10:29:10.970Z,19.59
2023-05-21T10:31:40.720Z,19.84
2023-05-21T10:34:11.180Z,19.49
2023-05-21T10:36:41.701Z,19.62
2023-05-21T10:39:13.400Z,19.57
2023-05-21T10:41:59.293Z,19.50
2023-05-21T10:45:06.313Z,19.56
2023-05-21T10:47:58.414Z,19.46
2023-05-21T10:50:40.174Z,19.36
2023-05-21T10:53:23.255Z,19.59
2023-05-21T10:56:44.183Z,19.88
2023-05-21T10:59:22.521Z,19.97
2023-05-21T11:01:57.559Z,20.03
2023-05-21T11:04:29.080Z,20.01
2023-05-21T11:06:59.576Z,19.98
2023-05-21T11:09:28.271Z,20.09
2023-05-21T11:12:01.465Z,20.21
2023-05-21T11:14:40.985Z,20.01
2023-05-21T11:17:14.426Z,20.05
2023-05-21T11:19:47.801Z,19.81
2023-05-21T11:22:28.804Z,20.32
2023-05-21T11:25:01.510Z,20.39
2023-05-21T11:27:36.284Z,20.53
2023-05-21T11:30:06.300Z,20.37
2023-05-21T11:33:04.475Z,20.27
2023-05-21T11:35:57.239Z,19.82
2023-05-21T11:38:31.449Z,19.59
2023-05-21T11:41:04.478Z,19.58
2023-05-21T11:43:33.056Z,19.37
2023-05-21T11:46:02.700Z,19.22
2023-05-21T11:48:32.853Z,19.38
2023-05-21T11:51:02.758Z,19.53
2023-05-21T11:53:31.370Z,19.53
2023-05-21T11:56:02.711Z,19.71
2023-05-21T11:58:32.358Z,19.42
2023-05-21T12:01:01.156Z,19.87
2023-05-21T12:03:30.882Z,19.78
2023-05-21T12:06:07.059Z,19.69
2023-05-21T12:08:36.256Z,19.70
2023-05-21T12:11:04.977Z,19.40
2023-05-21T12:13:33.590Z,19.39
2023-05-21T12:16:07.020Z,19.51
2023-05-21T12:18:37.626Z,19.57
2023-05-21T12:21:07.289Z,19.70
2023-05-21T12:23:36.961Z,19.64
2023-05-21T12:26:06.144Z,19.86
2023-05-21T12:28:34.556Z,19.88
2023-05-21T12:31:03.023Z,19.43
2023-05-21T12:33:37.906Z,19.78
2023-05-21T12:36:06.860Z,20.04
2023-05-21T12:38:35.347Z,20.09
2023-05-21T12:41:05.355Z,20.06
2023-05-21T12:43:34.141Z,19.32
2023-05-21T12:46:02.676Z,19.99
2023-05-21T12:48:31.375Z,20.05
2023-05-21T12:51:00.515Z,20.49
2023-05-21T12:53:38.452Z,20.84
2023-05-21T12:56:10.804Z,20.64
2023-05-21T12:58:43.394Z,20.17
2023-05-21T13:01:12.738Z,20.04
2023-05-21T13:03:45.599Z,19.91
2023-05-21T13:06:14.292Z,19.67
2023-05-21T13:08:42.436Z,19.42
2023-05-21T13:11:11.032Z,19.24
2023-05-21T13:13:39.305Z,19.42
2023-05-21T13:16:08.738Z,19.48
2023-05-21T13:18:37.255Z,19.74
2023-05-21T13:21:06.297Z,19.89
2023-05-21T13:23:34.500Z,19.48
2023-05-21T13:26:03.918Z,20.19
2023-05-21T13:28:32.534Z,20.02
2023-05-21T13:31:01.264Z,20.25
2023-05-21T13:33:32.184Z,20.39
2023-05-21T13:36:01.217Z,20.21
2023-05-21T13:38:29.883Z,19.98
2023-05-21T13:40:58.393Z,20.27
2023-05-21T13:43:26.952Z,20.19
2023-05-21T13:45:56.345Z,20.32
2023-05-21T13:48:24.932Z,20.38
2023-05-21T13:50:53.609Z,20.23
2023-05-21T13:53:25.174Z,20.18
2023-05-21T13:55:53.402Z,20.23
2023-05-21T13:58:21.811Z,20.23
2023-05-21T14:00:50.220Z,19.96
2023-05-21T14:03:18.718Z,19.97
2023-05-21T14:05:48.865Z,19.69
2023-05-21T14:08:20.464Z,19.83
2023-05-21T14:10:49.165Z,20.10
2023-05-21T14:13:20.114Z,20.11
2023-05-21T14:15:49.014Z,20.17
2023-05-21T14:18:17.490Z,19.73
2023-05-21T14:20:46.070Z,20.35
2023-05-21T14:23:15.123Z,19.97
2023-05-21T14:25:43.691Z,19.96
2023-05-21T14:28:12.185Z,19.77
2023-05-21T14:30:40.351Z,19.70
2023-05-21T14:33:08.585Z,19.71
2023-05-21T14:35:36.834Z,19.25
2023-05-21T14:38:05.114Z,19.53
2023-05-21T14:40:35.364Z,19.96
2023-05-21T14:43:04.395Z,19.94
2023-05-21T14:45:35.664Z,20.01
2023-05-21T14:48:11.276Z,20.11
2023-05-21T14:50:40.005Z,20.27
2023-05-21T14:53:14.016Z,20.26
2023-05-21T14:55:42.699Z,20.06
2023-05-21T14:58:11.453Z,19.96
2023-05-21T15:00:40.453Z,19.90
2023-05-21T15:03:09.161Z,19.87
2023-05-21T15:05:38.085Z,19.92
2023-05-21T15:08:08.492Z,19.65
2023-05-21T15:10:37.076Z,19.42
2023-05-21T15:13:05.714Z,19.17
2023-05-21T15:15:34.381Z,19.15
2023-05-21T15:18:03.088Z,19.05
2023-05-21T15:20:31.245Z,18.88
2023-05-21T15:25:32.473Z,18.73
2023-05-21T15:28:01.344Z,18.70
2023-05-21T15:30:30.061Z,18.08
2023-05-21T15:32:58.383Z,18.33
2023-05-21T15:35:27.194Z,18.27
2023-05-21T15:37:55.673Z,17.99
2023-05-21T15:40:26.148Z,17.98
2023-05-21T15:42:55.518Z,17.79
2023-05-21T15:45:24.921Z,17.85
2023-05-21T15:47:53.651Z,17.82
2023-05-21T15:50:22.243Z,17.71
2023-05-21T15:52:53.185Z,17.76
2023-05-21T15:55:22.497Z,17.90
2023-05-21T15:57:51.209Z,18.00
2023-05-21T16:00:19.869Z,17.97
2023-05-21T16:02:48.397Z,17.94
2023-05-21T16:05:16.826Z,17.85
2023-05-21T16:07:45.238Z,17.90
2023-05-21T16:10:13.762Z,17.89
2023-05-21T16:12:42.209Z,17.91
2023-05-21T16:15:11.318Z,17.93
2023-05-21T16:17:39.830Z,17.89
2023-05-21T16:20:08.318Z,17.78
2023-05-21T16:22:36.894Z,17.66
2023-05-21T16:25:05.912Z,17.78
2023-05-21T16:27:35.673Z,17.70
2023-05-21T16:30:04.668Z,17.62
2023-05-21T16:32:33.586Z,17.67
2023-05-21T16:35:02.120Z,17.63
2023-05-21T16:37:30.842Z,17.66
2023-05-21T16:39:59.434Z,17.65
2023-05-21T16:42:28.122Z,17.75
2023-05-21T16:44:56.904Z,17.69
2023-05-21T16:47:25.372Z,17.41
2023-05-21T16:49:54.814Z,17.24
2023-05-21T16:52:24.480Z,17.53
2023-05-21T16:54:52.901Z,17.53
2023-05-21T16:57:21.653Z,17.68
2023-05-21T16:59:50.239Z,17.78
2023-05-21T17:02:18.981Z,17.80
2023-05-21T17:04:48.349Z,17.91
2023-05-21T17:07:17.001Z,17.61
2023-05-21T17:09:45.583Z,17.69
2023-05-21T17:12:14.161Z,17.62
2023-05-21T17:14:42.578Z,17.62
2023-05-21T17:17:11.048Z,17.74
2023-05-21T17:19:39.832Z,17.88
2023-05-21T17:22:08.504Z,17.98
2023-05-21T17:24:37.131Z,18.01
2023-05-21T17:27:05.880Z,18.06
2023-05-21T17:29:34.666Z,18.04
2023-05-21T17:32:02.965Z,18.03
2023-05-21T17:34:31.731Z,17.98
2023-05-21T17:37:00.516Z,17.99
2023-05-21T17:39:29.079Z,17.94
2023-05-21T17:41:57.910Z,17.92
2023-05-21T17:44:26.676Z,17.78
2023-05-21T17:46:56.964Z,17.80
2023-05-21T17:49:25.751Z,17.80
2023-05-21T17:51:55.357Z,17.74
2023-05-21T17:54:23.624Z,17.73
2023-05-21T17:56:52.113Z,17.77
2023-05-21T17:59:21.828Z,17.79
2023-05-21T18:01:50.472Z,17.79
2023-05-21T18:04:18.907Z,17.71
2023-05-21T18:06:47.418Z,17.67
2023-05-21T18:09:15.869Z,17.64
2023-05-21T18:11:47.598Z,17.60
2023-05-21T18:14:16.467Z,17.59
2023-05-21T18:16:45.147Z,17.55
2023-05-21T18:19:14.087Z,17.51
2023-05-21T18:21:42.693Z,17.48
2023-05-21T18:24:11.425Z,17.38
2023-05-21T18:26:39.912Z,17.35
2023-05-21T18:29:11.276Z,17.30
2023-05-21T18:31:39.961Z,17.26
2023-05-21T18:34:08.620Z,17.28
2023-05-21T18:36:39.373Z,17.26
2023-05-21T18:39:09.929Z,17.18
2023-05-21T18:41:39.871Z,17.13
2023-05-21T18:44:08.529Z,17.10
2023-05-21T18:46:36.962Z,17.07
2023-05-21T18:49:05.277Z,17.08
2023-05-21T18:51:33.829Z,17.04
2023-05-21T18:54:02.682Z,16.98
2023-05-21T18:56:31.524Z,16.83
2023-05-21T18:59:00.146Z,16.82
2023-05-21T19:01:28.668Z,16.82
2023-05-21T19:03:58.041Z,16.80
2023-05-21T19:06:28.173Z,16.70
2023-05-21T19:08:56.740Z,16.72
2023-05-21T19:11:31.268Z,16.71
2023-05-21T19:14:00.314Z,16.67
2023-05-21T19:16:28.944Z,16.63
2023-05-21T19:18:58.431Z,16.62
2023-05-21T19:21:27.447Z,16.49
2023-05-21T19:23:56.097Z,16.46
2023-05-21T19:26:25.029Z,16.46
2023-05-21T19:28:54.825Z,16.44
2023-05-21T19:31:23.823Z,16.46
2023-05-21T19:33:52.414Z,16.44
2023-05-21T19:36:21.592Z,16.38
2023-05-21T19:38:51.083Z,16.31
2023-05-21T19:41:22.023Z,16.26
2023-05-21T19:43:51.410Z,16.21
2023-05-21T19:46:20.573Z,16.22
2023-05-21T19:48:52.695Z,16.13
2023-05-21T19:51:21.484Z,16.08
2023-05-21T19:53:49.662Z,16.07
2023-05-21T19:56:18.161Z,16.04
2023-05-21T19:58:48.437Z,15.95
2023-05-21T20:01:17.304Z,15.87
2023-05-21T20:03:46.622Z,15.81
2023-05-21T20:06:17.343Z,15.74
2023-05-21T20:08:46.175Z,15.69
2023-05-21T20:11:14.189Z,15.43
2023-05-21T20:13:42.764Z,15.51
2023-05-21T20:16:12.968Z,15.46
2023-05-21T20:18:43.165Z,15.40
2023-05-21T20:21:11.928Z,15.25
2023-05-21T20:23:40.713Z,15.24
2023-05-21T20:26:09.346Z,15.24
2023-05-21T20:28:37.772Z,15.06
2023-05-21T20:31:06.485Z,15.00
2023-05-21T20:33:40.016Z,14.84
2023-05-21T20:36:08.683Z,14.82
2023-05-21T20:38:38.402Z,14.47
2023-05-21T20:41:06.648Z,14.64
2023-05-21T20:43:37.615Z,14.63
2023-05-21T20:46:06.009Z,14.59
2023-05-21T20:48:34.620Z,14.56
2023-05-21T20:51:04.754Z,14.45
2023-05-21T20:53:33.991Z,14.45
2023-05-21T20:56:02.271Z,14.43
2023-05-21T20:58:30.343Z,14.37
2023-05-21T21:00:58.415Z,14.41
2023-05-21T21:03:30.015Z,14.46
2023-05-21T21:05:59.712Z,14.40
2023-05-21T21:08:28.369Z,14.40
2023-05-21T21:10:56.685Z,14.40
2023-05-21T21:13:24.542Z,14.20
2023-05-21T21:15:52.699Z,14.05
2023-05-21T21:18:20.596Z,14.18
2023-05-21T21:20:50.025Z,14.17
2023-05-21T21:23:18.409Z,14.16
2023-05-21T21:25:46.681Z,13.99
2023-05-21T21:28:14.864Z,14.03
2023-05-21T21:30:42.842Z,14.06
2023-05-21T21:33:11.960Z,14.07
2023-05-21T21:35:41.448Z,14.02
2023-05-21T21:38:09.464Z,13.96
2023-05-21T21:40:37.727Z,13.98
2023-05-21T21:43:06.156Z,14.02
2023-05-21T21:45:34.223Z,14.01
2023-05-21T21:48:02.267Z,13.83
2023-05-21T21:50:30.171Z,13.93
2023-05-21T21:52:58.175Z,13.98
2023-05-21T21:55:26.250Z,14.03
2023-05-21T21:57:54.329Z,13.88
2023-05-21T22:00:26.845Z,13.96
2023-05-21T22:02:55.064Z,13.94
2023-05-21T22:05:23.026Z,13.89
2023-05-21T22:07:51.518Z,13.78
2023-05-21T22:10:19.692Z,13.87
2023-05-21T22:12:47.615Z,13.81
2023-05-21T22:15:21.174Z,13.80
2023-05-21T22:17:50.420Z,13.80
2023-05-21T22:20:18.863Z,13.53
2023-05-21T22:22:47.315Z,13.44
2023-05-21T22:25:15.277Z,13.61
2023-05-21T22:27:43.863Z,13.68
2023-05-21T22:30:12.194Z,13.57
2023-05-21T22:32:40.371Z,13.52
2023-05-21T22:35:08.896Z,13.51
2023-05-21T22:37:37.670Z,13.48
2023-05-21T22:40:07.134Z,13.29
2023-05-21T22:42:36.607Z,13.35
2023-05-21T22:45:04.897Z,13.39
2023-05-21T22:47:32.901Z,13.52
2023-05-21T22:50:04.482Z,13.42
2023-05-21T22:52:34.391Z,13.39
2023-05-21T22:55:02.680Z,13.53
2023-05-21T22:57:30.573Z,13.58
2023-05-21T22:59:58.607Z,13.58
2023-05-21T23:02:26.649Z,13.48
2023-05-21T23:04:54.636Z,13.34
2023-05-21T23:07:22.497Z,13.49
2023-05-21T23:09:51.941Z,13.46
2023-05-21T23:12:20.135Z,13.51
2023-05-21T23:14:48.105Z,13.51
2023-05-21T23:17:15.941Z,13.50
2023-05-21T23:19:43.960Z,13.44
2023-05-21T23:22:12.154Z,13.47
2023-05-21T23:24:40.382Z,13.46
2023-05-21T23:27:08.284Z,13.45
2023-05-21T23:29:36.278Z,13.37
2023-05-21T23:32:05.373Z,13.35
2023-05-21T23:34:33.434Z,13.39
2023-05-21T23:37:01.449Z,13.33
2023-05-21T23:39:29.324Z,13.19
2023-05-21T23:41:57.357Z,13.26
2023-05-21T23:44:25.284Z,13.25
2023-05-21T23:46:53.183Z,13.28
2023-05-21T23:49:21.078Z,13.29
2023-05-21T23:51:50.953Z,13.21
2023-05-21T23:54:18.980Z,13.24
2023-05-21T23:56:46.900Z,13.15
2023-05-21T23:59:18.515Z,13.20
